Flugplatz Hoppstädten-Weiersbach

Für EDRH sind keine METAR/TAF Berichte vorhanden.
Es werden die Flugwettermeldungen vom Flugplatz Ramstein Air Base in 35 km Entfernung angezeigt.

Bericht für ETAR

vom 17.09. um 13:16 UTC

Wind 6 kt aus 270°

Sichtweite 10 km oder mehr

keine Wolken

Temperatur 21.0°C

Taupunkt 8.0°C

Luftfeuchtigkeit 43%

Luftdruck 1020 hPa

ETAR 171316Z 27006KT 9999 CLR 21/08 A3011 RMK AO2A SLPNO

Prognose für ETAR

vom 17.09. um 00:00 UTC

Zwischen 00:00 UTC und 00:00 UTC

variable Windrichtung mit 6 kt

Sichtweite 10 km oder mehr

aufgebrochene Bewölkung in 4000 ft


Am 18.09. zwischen 00:00 und 00:00 UTC übergehend zu

variable Windrichtung mit 6 kt

Sichtweite 10 km oder mehr

gering bewölkt in 5000 ft


Am 18.09. zwischen 00:00 und 00:00 UTC übergehend zu

Wind 9 kt aus 40°

Sichtweite 10 km oder mehr

gering bewölkt in 5000 ft

TAF ETAR 1710/1816 VRB06KT 9999 BKN040 QNH3012INS BECMG 1801/1802 VRB06KT 9999 FEW050 QNH3025INS TEMPO 1802/18/05 8000 BR BECMG 1813/1814 04009KT 9999 FEW050 QNH3030INS TX23/1714Z TN07/1802Z
Impressum